Terminal Aerodrome Forecast
Issued by NWS Pocatello, ID

Home | Current Version | Previous Version | Text Only | Print | Product List | Glossary On
Versions: 1 2 3 4 5 6 7 8 9 10 11 12 13 14 15
241
FTUS45 KPIH 191302 AAA
TAFIDA
TAF AMD
KIDA 191302Z 1913/2012 20011KT P6SM -RASN SCT025 BKN035 OVC070
      TEMPO 1913/1916 5SM -SN BR SCT015 OVC025
     FM191600 21012KT P6SM -SHRA SCT020 BKN035
     FM192100 22012G22KT P6SM -SHRA VCTS SCT035CB BKN080
     FM200300 20010KT P6SM SCT035 BKN080
     FM200700 20009KT P6SM VCSH SCT025 OVC035=

USA.gov is the U.S. government's official web portal to all federal, state and local government web resources and services.